Time;durP1;ratioP1;P1;durP2;ratioP2;P2;SDS_P1;SDS_P2;PMS_P1;PMS_P2;Temp;Humidity;BMP_temperature;BMP_pressure;BME280_temperature;BME280_humidity;BME280_pressure;Samples;Min_cycle;Max_cycle;Signal;HPM_P1;HPM_P2
2020/12/30 00:02:06;;;;;;;3.35;1.58;;;4.60;1.00;;;;;;5040664;28;20221;-78
2020/12/30 00:04:32;;;;;;;6.75;2.10;;;4.60;1.00;;;;;;5046462;28;20167;-74
2020/12/30 00:07:00;;;;;;;1.83;1.73;;;4.60;1.00;;;;;;5052204;28;20176;-75
2020/12/30 00:09:30;;;;;;;4.55;2.00;;;4.50;1.00;;;;;;5053884;28;20286;-78
2020/12/30 00:12:18;;;;;;;2.58;1.95;;;4.50;1.00;;;;;;5054099;28;20520;-79
2020/12/30 00:14:48;;;;;;;5.47;1.55;;;4.50;1.00;;;;;;5051045;28;20172;-78
2020/12/30 00:17:18;;;;;;;2.55;1.63;;;4.60;1.00;;;;;;5037602;28;20185;-79
2020/12/30 00:19:48;;;;;;;2.95;2.13;;;4.60;1.00;;;;;;5034462;28;20195;-79
2020/12/30 00:22:36;;;;;;;1.60;1.50;;;4.60;1.00;;;;;;5033935;28;20188;-79
2020/12/30 00:25:04;;;;;;;2.92;2.10;;;4.60;1.00;;;;;;5035932;28;20185;-75
2020/12/30 00:27:29;;;;;;;5.03;1.90;;;4.60;1.00;;;;;;5033676;28;20196;-75
2020/12/30 00:29:55;;;;;;;2.80;2.13;;;4.60;1.00;;;;;;5040257;28;20215;-78
2020/12/30 00:32:36;;;;;;;2.80;2.10;;;4.60;1.00;;;;;;5051244;28;20172;-79
2020/12/30 00:35:03;;;;;;;3.22;2.60;;;4.70;1.00;;;;;;5036364;28;20210;-75
2020/12/30 00:37:29;;;;;;;4.38;2.38;;;4.80;1.00;;;;;;5035217;28;20203;-75
2020/12/30 00:40:00;;;;;;;2.07;1.87;;;4.80;1.00;;;;;;5036243;28;20679;-78
2020/12/30 00:42:37;;;;;;;2.25;1.80;;;4.80;1.00;;;;;;5052175;28;20225;-78
2020/12/30 00:45:08;;;;;;;2.03;1.58;;;4.80;1.00;;;;;;5043518;28;20654;-78
2020/12/30 00:47:36;;;;;;;2.95;2.03;;;4.90;1.00;;;;;;5053559;28;20160;-79
2020/12/30 00:50:04;;;;;;;3.67;2.42;;;4.90;1.00;;;;;;5039248;28;20207;-75
2020/12/30 00:52:36;;;;;;;4.13;2.47;;;4.90;1.00;;;;;;5032001;28;20184;-75
2020/12/30 00:55:06;;;;;;;4.65;2.00;;;4.90;1.00;;;;;;5033461;28;20647;-75
2020/12/30 00:57:32;;;;;;;2.67;1.83;;;5.00;1.00;;;;;;5033369;28;20164;-75
2020/12/30 00:59:57;;;;;;;5.00;1.80;;;5.00;1.00;;;;;;5044929;28;20176;-75
2020/12/30 01:02:23;;;;;;;6.60;2.30;;;;;;;;;;5050476;28;20187;-74
2020/12/30 01:04:54;;;;;;;3.13;2.25;;;5.10;1.00;;;;;;5037511;28;20211;-78
2020/12/30 01:07:30;;;;;;;3.92;1.98;;;5.10;1.00;;;;;;5033219;28;20207;-79
2020/12/30 01:10:00;;;;;;;6.85;2.20;;;5.10;1.00;;;;;;5042591;28;20203;-78
2020/12/30 01:12:37;;;;;;;4.78;2.00;;;5.10;1.00;;;;;;5050402;28;20234;-78
2020/12/30 01:15:06;;;;;;;3.97;2.30;;;5.10;1.00;;;;;;5051200;28;20225;-78
2020/12/30 01:17:32;;;;;;;2.80;1.90;;;5.00;1.00;;;;;;5052242;28;20172;-79
2020/12/30 01:20:00;;;;;;;3.53;2.03;;;5.00;1.00;;;;;;5051892;28;20172;-75
2020/12/30 01:22:30;;;;;;;2.40;2.20;;;5.00;1.00;;;;;;5041009;28;20192;-75
2020/12/30 01:25:00;;;;;;;5.13;2.80;;;5.00;1.00;;;;;;5037853;28;20192;-75
2020/12/30 01:27:25;;;;;;;3.15;2.22;;;5.10;1.00;;;;;;5046365;28;20699;-75
2020/12/30 01:29:54;;;;;;;3.23;2.10;;;5.10;1.00;;;;;;5049428;28;20294;-78
2020/12/30 01:32:36;;;;;;;3.42;1.92;;;5.10;1.00;;;;;;5034807;28;20180;-78
2020/12/30 01:35:12;;;;;;;7.95;2.15;;;5.10;1.00;;;;;;5049165;28;20168;-75
2020/12/30 01:37:42;;;;;;;2.72;2.40;;;5.10;1.00;;;;;;5053413;28;20171;-75
2020/12/30 01:40:09;;;;;;;5.68;2.05;;;5.10;1.00;;;;;;5041684;28;20536;-74
2020/12/30 01:42:46;;;;;;;3.65;2.80;;;5.10;1.00;;;;;;5032939;28;20172;-76
2020/12/30 01:45:13;;;;;;;4.22;2.58;;;5.10;1.00;;;;;;5032962;28;20199;-75
2020/12/30 01:47:40;;;;;;;10.35;3.55;;;5.20;1.00;;;;;;5038326;28;20176;-75
2020/12/30 01:50:07;;;;;;;4.93;3.15;;;5.20;1.00;;;;;;5047487;28;20177;-75
2020/12/30 01:52:36;;;;;;;8.32;4.03;;;5.20;1.00;;;;;;5033088;28;20236;-75
2020/12/30 01:55:23;;;;;;;5.55;3.88;;;5.20;1.00;;;;;;5033037;28;20279;-75
2020/12/30 01:57:54;;;;;;;4.47;3.00;;;5.30;1.00;;;;;;5036022;28;20696;-75
2020/12/30 02:00:24;;;;;;;6.65;3.55;;;5.30;1.00;;;;;;5050953;28;20172;-75
2020/12/30 02:02:58;;;;;;;4.85;3.30;;;5.30;1.00;;;;;;5048963;28;20187;-75
2020/12/30 02:05:43;;;;;;;9.43;3.63;;;5.30;1.00;;;;;;5039052;28;20180;-78
2020/12/30 02:08:18;;;;;;;5.53;3.47;;;5.20;1.00;;;;;;5036059;28;20199;-79
2020/12/30 02:10:55;;;;;;;2.58;2.30;;;5.30;1.00;;;;;;5036111;28;20190;-78
2020/12/30 02:13:36;;;;;;;11.47;3.50;;;5.30;1.00;;;;;;5034895;28;20643;-78
2020/12/30 02:16:06;;;;;;;9.35;3.95;;;5.30;1.00;;;;;;5036599;28;20831;-79
2020/12/30 02:18:36;;;;;;;11.57;3.60;;;5.30;1.00;;;;;;5045055;28;20531;-80
2020/12/30 02:21:06;;;;;;;10.35;4.10;;;5.30;1.00;;;;;;5035898;28;20165;-75
2020/12/30 02:23:33;;;;;;;8.35;4.50;;;5.30;1.00;;;;;;5035641;28;20636;-75
2020/12/30 02:25:59;;;;;;;5.97;3.45;;;5.40;1.00;;;;;;5048169;28;20230;-75
2020/12/30 02:28:30;;;;;;;5.50;2.80;;;5.30;1.00;;;;;;5052412;28;20207;-75
2020/12/30 02:31:00;;;;;;;3.78;3.38;;;5.40;1.00;;;;;;5053477;28;20418;-74
2020/12/30 02:33:30;;;;;;;4.88;3.75;;;7.80;1.00;;;;;;5045106;28;20188;-75
2020/12/30 02:36:00;;;;;;;4.85;3.67;;;5.30;1.00;;;;;;5035981;28;20642;-78
2020/12/30 02:38:26;;;;;;;5.60;3.60;;;5.30;1.00;;;;;;5055277;28;20227;-78
2020/12/30 02:41:24;;;;;;;5.83;3.90;;;5.30;1.00;;;;;;5055447;28;20623;-79
2020/12/30 02:43:50;;;;;;;6.43;3.90;;;5.30;1.00;;;;;;5035849;28;20218;-78
2020/12/30 02:46:18;;;;;;;7.77;3.87;;;5.30;1.00;;;;;;5035792;28;20181;-78
2020/12/30 02:48:55;;;;;;;8.25;3.58;;;5.30;1.00;;;;;;5035600;28;20534;-78
2020/12/30 02:51:20;;;;;;;8.50;4.65;;;5.40;1.00;;;;;;5039531;28;20183;-75
2020/12/30 02:53:47;;;;;;;6.53;4.33;;;;;;;;;;5052702;28;20537;-75
2020/12/30 02:56:14;;;;;;;5.78;3.60;;;5.40;1.00;;;;;;5054956;28;20744;-75
2020/12/30 02:58:40;;;;;;;6.50;3.75;;;5.40;1.00;;;;;;5055506;28;20174;-75
2020/12/30 03:01:13;;;;;;;4.72;3.35;;;5.40;1.00;;;;;;5043757;28;20184;-75
2020/12/30 03:03:48;;;;;;;8.23;3.57;;;5.40;1.00;;;;;;5040251;28;20724;-75
2020/12/30 03:06:24;;;;;;;4.30;3.37;;;5.40;1.00;;;;;;5043417;28;20433;-75
2020/12/30 03:08:50;;;;;;;7.03;4.03;;;;;;;;;;5053887;28;20845;-75
2020/12/30 03:11:16;;;;;;;8.00;3.97;;;;;;;;;;5049968;28;20180;-75
2020/12/30 03:13:42;;;;;;;6.30;4.30;;;5.40;1.00;;;;;;5046194;28;20502;-75
2020/12/30 03:16:18;;;;;;;5.70;3.60;;;5.40;1.00;;;;;;5034010;28;20279;-75
2020/12/30 03:19:00;;;;;;;8.17;3.83;;;5.50;1.00;;;;;;5035409;28;20188;-75
2020/12/30 03:21:36;;;;;;;5.95;4.35;;;5.50;1.00;;;;;;5041970;28;20449;-75
2020/12/30 03:24:06;;;;;;;11.23;3.67;;;5.50;1.00;;;;;;5053266;28;20164;-75
2020/12/30 03:26:49;;;;;;;6.43;4.20;;;5.50;1.00;;;;;;5043703;28;20306;-75
2020/12/30 03:29:14;;;;;;;6.55;3.70;;;5.40;1.00;;;;;;5044557;28;20227;-75
2020/12/30 03:31:48;;;;;;;5.93;3.90;;;5.50;1.00;;;;;;5054247;28;20249;-75
2020/12/30 03:34:19;;;;;;;5.47;4.00;;;5.50;1.00;;;;;;5039177;28;20512;-75
2020/12/30 03:36:48;;;;;;;5.43;4.33;;;5.50;1.00;;;;;;5033747;28;20188;-79
2020/12/30 03:39:14;;;;;;;6.63;4.50;;;;;;;;;;5034163;28;20793;-78
2020/12/30 03:41:49;;;;;;;9.20;3.80;;;5.50;1.00;;;;;;5033050;28;20180;-79
2020/12/30 03:44:54;;;;;;;7.40;4.72;;;5.60;1.00;;;;;;5039253;28;20525;-79
2020/12/30 03:47:30;;;;;;;8.23;3.92;;;5.60;1.00;;;;;;5037482;28;20180;-79
2020/12/30 03:50:00;;;;;;;6.47;4.38;;;5.60;1.00;;;;;;5034472;28;20728;-76
2020/12/30 03:52:30;;;;;;;9.45;5.07;;;5.60;1.00;;;;;;5034428;28;20164;-79
2020/12/30 03:55:24;;;;;;;7.20;4.40;;;5.60;1.00;;;;;;5046812;28;20175;-79
2020/12/30 03:57:54;;;;;;;10.65;5.20;;;5.60;1.00;;;;;;5046862;28;20184;-79
2020/12/30 04:00:24;;;;;;;8.60;5.10;;;5.60;1.00;;;;;;5033042;28;20226;-79
2020/12/30 04:03:06;;;;;;;6.93;4.13;;;5.60;1.00;;;;;;5034337;28;20776;-79
2020/12/30 04:05:36;;;;;;;7.35;4.57;;;5.60;1.00;;;;;;5038091;28;20191;-75
2020/12/30 04:08:07;;;;;;;7.80;5.50;;;5.60;1.00;;;;;;5049571;28;20197;-75
2020/12/30 04:10:33;;;;;;;6.97;4.50;;;5.60;1.00;;;;;;5034071;28;20184;-74
2020/12/30 04:12:59;;;;;;;9.10;4.23;;;;;;;;;;5034221;28;20418;-75
2020/12/30 04:15:30;;;;;;;8.88;4.00;;;5.60;1.00;;;;;;5034475;28;20164;-75
2020/12/30 04:18:12;;;;;;;12.95;4.88;;;5.50;1.00;;;;;;5034116;28;20179;-75
2020/12/30 04:20:38;;;;;;;6.60;4.60;;;5.50;1.00;;;;;;5034303;28;20243;-78
2020/12/30 04:23:06;;;;;;;8.67;4.37;;;5.50;1.00;;;;;;5040270;28;20227;-79
2020/12/30 04:25:36;;;;;;;8.30;4.53;;;5.50;1.00;;;;;;5040183;28;20552;-78
2020/12/30 04:28:12;;;;;;;7.18;4.30;;;5.50;1.00;;;;;;5035893;28;20554;-79
2020/12/30 04:30:42;;;;;;;15.60;5.07;;;5.50;1.00;;;;;;5033580;28;20222;-79
2020/12/30 04:33:09;;;;;;;5.57;4.03;;;5.50;1.00;;;;;;5036277;28;20245;-79
2020/12/30 04:35:42;;;;;;;7.18;4.78;;;5.40;1.00;;;;;;5033837;28;20659;-78
2020/12/30 04:38:31;;;;;;;8.60;4.80;;;5.40;1.00;;;;;;5033581;28;20548;-79
2020/12/30 04:41:14;;;;;;;13.52;5.35;;;5.40;1.00;;;;;;5033236;28;20200;-79
2020/12/30 04:43:44;;;;;;;6.85;4.28;;;5.40;1.00;;;;;;5043016;28;20183;-79
2020/12/30 04:46:13;;;;;;;9.18;4.70;;;5.40;1.00;;;;;;5032270;28;20172;-79
2020/12/30 04:48:48;;;;;;;9.75;5.30;;;5.30;1.00;;;;;;5049991;28;20199;-79
2020/12/30 04:51:17;;;;;;;6.40;4.47;;;5.40;1.00;;;;;;5052585;28;20578;-75
2020/12/30 04:54:12;;;;;;;12.23;4.82;;;5.40;1.00;;;;;;5053114;28;20587;-75
2020/12/30 04:56:55;;;;;;;8.35;4.30;;;5.30;1.00;;;;;;5053450;28;20221;-75
2020/12/30 04:59:29;;;;;;;8.00;4.88;;;5.30;1.00;;;;;;5051350;28;20171;-75
2020/12/30 05:02:08;;;;;;;9.80;5.25;;;5.40;1.00;;;;;;5040640;28;20180;-75
2020/12/30 05:04:36;;;;;;;6.32;4.18;;;5.40;1.00;;;;;;5033440;28;20161;-75
2020/12/30 05:07:11;;;;;;;9.40;4.60;;;5.30;1.00;;;;;;5039110;28;20235;-75
2020/12/30 05:09:38;;;;;;;17.17;5.32;;;5.30;1.00;;;;;;5033684;28;20195;-74
2020/12/30 05:12:15;;;;;;;5.78;4.00;;;5.30;1.00;;;;;;5039778;28;20271;-75
2020/12/30 05:14:42;;;;;;;14.05;5.22;;;5.30;1.00;;;;;;5042112;28;20175;-75
2020/12/30 05:17:09;;;;;;;16.48;4.03;;;5.30;1.00;;;;;;5053217;28;20172;-74
2020/12/30 05:19:37;;;;;;;10.82;4.35;;;5.30;1.00;;;;;;5053149;28;20646;-74
2020/12/30 05:22:06;;;;;;;13.55;4.45;;;5.30;1.00;;;;;;5047905;28;20191;-78
2020/12/30 05:24:44;;;;;;;6.70;4.75;;;5.30;1.00;;;;;;5050167;28;20215;-78
2020/12/30 05:27:20;;;;;;;11.75;4.60;;;5.20;1.00;;;;;;5039591;28;20188;-78
2020/12/30 05:29:50;;;;;;;9.85;4.20;;;5.20;1.00;;;;;;5045537;28;20203;-79
2020/12/30 05:32:37;;;;;;;3.97;3.58;;;5.20;1.00;;;;;;5052991;28;20172;-79
2020/12/30 05:35:05;;;;;;;7.07;3.80;;;5.20;1.00;;;;;;5050600;28;20210;-79
2020/12/30 05:37:42;;;;;;;9.77;4.10;;;5.20;1.00;;;;;;5040372;28;20184;-74
2020/12/30 05:40:23;;;;;;;8.40;4.60;;;5.20;1.00;;;;;;5041146;28;20196;-74
2020/12/30 05:43:14;;;;;;;7.03;4.07;;;5.20;1.00;;;;;;5036943;28;20222;-75
2020/12/30 05:45:47;;;;;;;6.53;4.18;;;5.20;1.00;;;;;;5036463;28;20188;-74
2020/12/30 05:48:19;;;;;;;11.05;3.95;;;5.30;1.00;;;;;;5051902;28;20279;-75
2020/12/30 05:51:24;;;;;;;6.60;3.63;;;5.20;1.00;;;;;;5055538;28;20176;-75
2020/12/30 05:54:11;;;;;;;9.80;4.10;;;5.20;1.00;;;;;;5051458;28;20296;-74
2020/12/30 05:56:54;;;;;;;5.90;3.75;;;5.30;1.00;;;;;;5055058;28;20160;-74
2020/12/30 05:59:22;;;;;;;6.22;4.20;;;5.20;1.00;;;;;;5041289;28;20176;-75
2020/12/30 06:01:50;;;;;;;9.15;5.13;;;5.20;1.00;;;;;;5035314;28;20310;-74
2020/12/30 06:04:17;;;;;;;8.43;4.85;;;5.30;1.00;;;;;;5036459;28;20179;-75
2020/12/30 06:06:45;;;;;;;9.82;4.40;;;5.30;1.00;;;;;;5038318;28;20188;-74
2020/12/30 06:09:16;;;;;;;9.18;4.72;;;5.20;1.00;;;;;;5041396;28;20218;-75
2020/12/30 06:11:53;;;;;;;10.95;4.10;;;5.30;1.00;;;;;;5036599;28;20638;-75
2020/12/30 06:14:20;;;;;;;12.68;5.80;;;5.20;1.00;;;;;;5034508;28;20203;-75
2020/12/30 06:16:46;;;;;;;6.22;4.40;;;5.20;1.00;;;;;;5036185;28;20243;-75
2020/12/30 06:19:13;;;;;;;9.00;4.80;;;5.20;1.00;;;;;;5039104;28;20207;-75
2020/12/30 06:22:01;;;;;;;9.20;4.50;;;5.20;1.00;;;;;;5048762;28;20473;-85
2020/12/30 06:24:28;;;;;;;6.57;4.05;;;5.10;1.00;;;;;;5047985;28;20179;-82
2020/12/30 06:27:31;;;;;;;9.02;4.55;;;5.20;1.00;;;;;;5035013;28;20176;-81
2020/12/30 06:30:12;;;;;;;5.90;3.88;;;5.20;1.00;;;;;;5045593;28;20203;-75
2020/12/30 06:32:38;;;;;;;7.47;4.40;;;5.20;1.00;;;;;;5055158;28;20275;-75
2020/12/30 06:35:04;;;;;;;6.10;4.30;;;5.30;1.00;;;;;;5045548;28;20212;-75
2020/12/30 06:37:34;;;;;;;9.03;4.67;;;5.30;1.00;;;;;;5045118;28;20208;-75
2020/12/30 06:40:23;;;;;;;7.05;3.95;;;5.30;1.00;;;;;;5037692;28;20657;-77
2020/12/30 06:42:55;;;;;;;4.53;3.40;;;5.30;1.00;;;;;;5049364;28;20180;-75
2020/12/30 06:45:43;;;;;;;5.53;4.00;;;5.30;1.00;;;;;;5035869;28;20467;-75
2020/12/30 06:48:14;;;;;;;6.80;3.45;;;5.30;1.00;;;;;;5052373;28;20617;-75
2020/12/30 06:50:40;;;;;;;8.80;3.78;;;5.40;1.00;;;;;;5055570;28;20239;-75
2020/12/30 06:53:27;;;;;;;10.60;4.10;;;5.40;1.00;;;;;;5055840;28;20195;-79
2020/12/30 06:56:08;;;;;;;5.45;3.60;;;5.40;1.00;;;;;;5055416;28;20386;-78
2020/12/30 06:58:51;;;;;;;5.67;3.90;;;5.40;1.00;;;;;;5054298;28;20259;-79
2020/12/30 07:01:20;;;;;;;5.38;3.05;;;5.40;1.00;;;;;;5054634;28;20426;-79
2020/12/30 07:03:50;;;;;;;6.07;3.97;;;5.40;1.00;;;;;;5054297;28;20179;-79
2020/12/30 07:06:35;;;;;;;7.32;3.42;;;5.40;1.00;;;;;;5054331;28;20422;-79
2020/12/30 07:09:04;;;;;;;13.73;4.35;;;5.40;1.00;;;;;;5044355;28;20216;-79
2020/12/30 07:11:42;;;;;;;6.15;3.45;;;5.40;1.00;;;;;;5044395;28;20668;-79
2020/12/30 07:14:21;;;;;;;5.22;3.80;;;5.30;1.00;;;;;;5054180;28;20163;-79
2020/12/30 07:16:54;;;;;;;11.05;3.60;;;5.40;1.00;;;;;;5054230;28;20206;-79
2020/12/30 07:19:41;;;;;;;7.03;4.05;;;5.30;1.00;;;;;;5054322;28;20201;-79
2020/12/30 07:22:11;;;;;;;6.85;3.33;;;5.30;1.00;;;;;;5044132;28;20184;-75
2020/12/30 07:24:58;;;;;;;6.68;3.28;;;5.30;1.00;;;;;;5033102;28;20199;-75
2020/12/30 07:27:28;;;;;;;4.32;3.40;;;5.40;1.00;;;;;;5050243;28;20187;-75
2020/12/30 07:29:53;;;;;;;4.40;2.60;;;5.40;1.00;;;;;;5053902;28;20196;-79
2020/12/30 07:32:19;;;;;;;7.07;3.20;;;5.40;1.00;;;;;;5053969;28;20160;-79
2020/12/30 07:34:48;;;;;;;10.53;3.60;;;5.40;1.00;;;;;;5052479;28;20175;-79
2020/12/30 07:37:14;;;;;;;3.05;2.60;;;5.40;1.00;;;;;;5054006;28;20172;-78
2020/12/30 07:39:42;;;;;;;3.75;3.38;;;5.40;1.00;;;;;;5044736;28;20542;-79
2020/12/30 07:42:20;;;;;;;4.85;2.97;;;5.40;1.00;;;;;;5046023;28;20187;-79
2020/12/30 07:44:55;;;;;;;4.03;2.78;;;5.50;1.00;;;;;;5053718;28;20250;-80
2020/12/30 07:47:26;;;;;;;3.40;2.63;;;5.40;1.00;;;;;;5053572;28;20179;-80
2020/12/30 07:49:59;;;;;;;7.75;2.70;;;5.40;1.00;;;;;;5035167;28;20667;-79
2020/12/30 07:52:24;;;;;;;7.80;2.50;;;5.40;1.00;;;;;;5033980;28;20558;-79
2020/12/30 07:54:50;;;;;;;2.50;2.30;;;;;;;;;;5034000;28;20396;-80
2020/12/30 07:57:18;;;;;;;2.40;2.13;;;5.40;1.00;;;;;;5033700;28;20165;-80
2020/12/30 07:59:48;;;;;;;2.73;2.43;;;5.50;1.00;;;;;;5032897;28;20403;-80
2020/12/30 08:02:15;;;;;;;5.22;2.40;;;5.50;1.00;;;;;;5033444;28;20403;-80
2020/12/30 08:04:42;;;;;;;3.72;2.42;;;5.50;1.00;;;;;;5033338;28;20196;-79
2020/12/30 08:07:13;;;;;;;4.28;2.45;;;5.60;1.00;;;;;;5033127;28;20179;-80
2020/12/30 08:09:40;;;;;;;1.85;1.67;;;5.60;1.00;;;;;;5044895;28;20211;-80
2020/12/30 08:12:13;;;;;;;2.83;1.83;;;5.60;1.00;;;;;;5048133;28;20278;-79
2020/12/30 08:14:41;;;;;;;2.50;2.30;;;5.70;1.00;;;;;;5045805;28;20754;-79
2020/12/30 08:17:08;;;;;;;5.40;2.93;;;5.70;1.00;;;;;;5052609;28;20588;-79
2020/12/30 08:19:38;;;;;;;3.20;2.50;;;5.80;1.00;;;;;;5053343;28;20394;-81
2020/12/30 08:22:13;;;;;;;9.45;3.00;;;5.80;1.00;;;;;;5052774;28;20410;-79
2020/12/30 08:24:52;;;;;;;14.45;3.13;;;5.80;1.00;;;;;;5052033;28;20179;-75
2020/12/30 08:27:22;;;;;;;8.25;2.60;;;5.80;1.00;;;;;;5043486;28;20274;-76
2020/12/30 08:29:52;;;;;;;2.30;1.87;;;5.80;1.00;;;;;;5032816;28;20211;-76
2020/12/30 08:32:33;;;;;;;2.57;2.37;;;5.80;1.00;;;;;;5032791;28;20870;-76
2020/12/30 08:35:18;;;;;;;4.60;2.60;;;5.90;1.00;;;;;;5050111;28;20481;-76
2020/12/30 08:37:46;;;;;;;2.03;1.83;;;5.90;1.00;;;;;;5053099;28;21010;-75
2020/12/30 08:40:12;;;;;;;4.07;2.80;;;;;;;;;;5041351;28;21045;-76
2020/12/30 08:42:53;;;;;;;2.80;2.60;;;5.80;1.00;;;;;;5034436;28;20447;-75
2020/12/30 08:45:49;;;;;;;3.80;2.40;;;5.70;1.00;;;;;;5050679;28;20430;-75
2020/12/30 08:48:16;;;;;;;4.30;1.80;;;5.80;1.00;;;;;;5047518;28;20415;-75
2020/12/30 08:50:42;;;;;;;14.30;2.72;;;;;;;;;;5043026;28;20418;-75
2020/12/30 08:53:09;;;;;;;3.20;2.08;;;;;;;;;;5038368;28;20505;-76
2020/12/30 08:55:34;;;;;;;2.43;2.00;;;5.80;1.00;;;;;;5033284;28;20179;-75
2020/12/30 08:58:01;;;;;;;2.40;2.07;;;;;;;;;;5032462;28;20744;-75
2020/12/30 09:00:35;;;;;;;6.83;2.40;;;5.90;1.00;;;;;;5050290;28;20249;-75
2020/12/30 09:03:12;;;;;;;2.70;2.37;;;5.90;1.00;;;;;;5052664;28;20615;-75
2020/12/30 09:05:38;;;;;;;2.90;2.20;;;6.00;1.00;;;;;;5037385;28;20444;-75
2020/12/30 09:08:10;;;;;;;2.47;2.10;;;6.00;1.00;;;;;;5033870;28;20176;-76
2020/12/30 09:10:36;;;;;;;1.90;1.80;;;;;;;;;;5041344;28;20487;-75
2020/12/30 09:13:16;;;;;;;2.20;1.93;;;6.10;1.00;;;;;;5052450;28;20437;-76
2020/12/30 09:15:43;;;;;;;1.90;1.80;;;6.20;1.00;;;;;;5035364;28;20415;-75
2020/12/30 09:18:13;;;;;;;2.30;1.80;;;6.20;1.00;;;;;;5036625;28;20387;-75
2020/12/30 09:20:39;;;;;;;4.70;2.17;;;6.30;1.00;;;;;;5036467;28;20449;-76
2020/12/30 09:23:10;;;;;;;2.23;1.60;;;6.40;1.00;;;;;;5052814;28;20516;-75
2020/12/30 09:25:38;;;;;;;2.90;1.83;;;6.40;1.00;;;;;;5056209;28;20792;-79
2020/12/30 09:28:20;;;;;;;13.13;1.97;;;6.40;1.00;;;;;;5052942;28;20426;-79
2020/12/30 09:30:47;;;;;;;1.73;1.63;;;6.40;1.00;;;;;;5036429;28;20407;-79
2020/12/30 09:33:18;;;;;;;3.37;1.53;;;6.50;1.00;;;;;;5035979;28;20531;-79
2020/12/30 09:35:45;;;;;;;1.30;1.20;;;6.50;1.00;;;;;;5054924;28;20410;-79
2020/12/30 09:38:16;;;;;;;1.63;1.53;;;;;;;;;;5056647;28;20493;-76
2020/12/30 09:40:43;;;;;;;2.07;1.97;;;6.50;1.00;;;;;;5052950;28;20449;-75
2020/12/30 09:43:09;;;;;;;2.03;1.20;;;;;;;;;;5051629;28;21405;-75
2020/12/30 09:45:35;;;;;;;2.67;1.97;;;;;;;;;;5047479;28;20414;-75
2020/12/30 09:48:20;;;;;;;6.93;1.47;;;6.50;1.00;;;;;;5052660;28;20914;-76
2020/12/30 09:50:50;;;;;;;1.77;1.53;;;6.60;1.00;;;;;;5034460;28;20439;-79
2020/12/30 09:53:16;;;;;;;1.60;1.40;;;6.70;1.00;;;;;;5035903;28;20395;-79
2020/12/30 09:55:43;;;;;;;2.37;1.30;;;6.70;1.00;;;;;;5035584;28;20452;-75
2020/12/30 09:58:09;;;;;;;1.67;1.57;;;6.70;1.00;;;;;;5035726;28;20423;-79
2020/12/30 10:00:35;;;;;;;3.10;2.70;;;;;;;;;;5036010;28;20388;-75
2020/12/30 10:03:01;;;;;;;1.50;1.40;;;6.60;1.00;;;;;;5055622;28;20638;-75
2020/12/30 10:05:26;;;;;;;1.30;1.20;;;6.60;1.00;;;;;;5054523;28;20418;-76
2020/12/30 10:07:52;;;;;;;1.70;1.23;;;;;;;;;;5049934;28;20215;-75
2020/12/30 10:10:18;;;;;;;2.23;2.03;;;;;;;;;;5035280;28;20294;-79
2020/12/30 10:12:44;;;;;;;1.67;1.50;;;6.70;1.00;;;;;;5038000;28;20432;-79
2020/12/30 10:15:11;;;;;;;1.73;1.63;;;6.70;1.00;;;;;;5055387;28;20839;-79
2020/12/30 10:17:38;;;;;;;3.83;1.80;;;6.70;1.00;;;;;;5054320;28;20160;-79
2020/12/30 10:20:06;;;;;;;3.20;2.03;;;6.70;1.00;;;;;;5035558;28;20396;-79
2020/12/30 10:22:31;;;;;;;2.23;1.80;;;6.70;1.00;;;;;;5034179;28;20442;-79
2020/12/30 10:24:58;;;;;;;1.83;1.53;;;;;;;;;;5034447;28;20434;-75
2020/12/30 10:27:24;;;;;;;3.67;1.70;;;6.60;1.00;;;;;;5035122;28;20177;-75
2020/12/30 10:29:50;;;;;;;3.30;1.77;;;;;;;;;;5038085;28;20454;-75
2020/12/30 10:32:16;;;;;;;2.13;1.80;;;;;;;;;;5055173;28;20390;-76
2020/12/30 10:34:42;;;;;;;2.53;1.90;;;;;;;;;;5054800;28;20490;-75
2020/12/30 10:37:08;;;;;;;2.10;1.77;;;;;;;;;;5052128;28;20683;-75
2020/12/30 10:39:35;;;;;;;4.30;1.93;;;;;;;;;;5035270;28;20529;-79
2020/12/30 10:42:01;;;;;;;2.20;1.50;;;7.10;1.00;;;;;;5038218;28;20426;-79
2020/12/30 10:44:27;;;;;;;2.90;1.70;;;7.20;1.00;;;;;;5047902;28;20465;-79
2020/12/30 10:46:53;;;;;;;4.53;1.90;;;7.20;1.00;;;;;;5054146;28;20457;-75
2020/12/30 10:49:19;;;;;;;3.73;1.63;;;7.30;1.00;;;;;;5034702;28;20447;-75
2020/12/30 10:51:49;;;;;;;2.20;1.57;;;7.30;1.00;;;;;;5034657;28;20579;-75
2020/12/30 10:54:20;;;;;;;9.37;2.40;;;7.40;1.00;;;;;;5042331;28;20419;-75
2020/12/30 10:56:49;;;;;;;1.97;1.70;;;;;;;;;;5054731;28;20421;-75
2020/12/30 10:59:15;;;;;;;1.90;1.53;;;7.40;1.00;;;;;;5054659;28;20762;-75
2020/12/30 11:01:41;;;;;;;1.53;1.43;;;;;;;;;;5048437;28;20423;-75
2020/12/30 11:04:07;;;;;;;3.80;1.60;;;;;;;;;;5050552;28;20497;-75
2020/12/30 11:06:34;;;;;;;4.10;1.80;;;7.50;1.00;;;;;;5039466;28;20452;-75
2020/12/30 11:09:00;;;;;;;1.87;1.40;;;7.40;1.00;;;;;;5046885;28;20548;-75
2020/12/30 11:11:26;;;;;;;1.83;1.20;;;7.40;1.00;;;;;;5041489;28;20462;-79
2020/12/30 11:14:01;;;;;;;3.83;1.47;;;7.30;1.00;;;;;;5047079;28;20442;-79
2020/12/30 11:16:27;;;;;;;6.20;1.77;;;7.20;1.00;;;;;;5043450;28;20565;-79
2020/12/30 11:18:52;;;;;;;1.47;1.37;;;7.10;1.00;;;;;;5045522;28;20452;-79
2020/12/30 11:21:19;;;;;;;2.60;1.60;;;;;;;;;;5043965;28;20184;-79
2020/12/30 11:23:45;;;;;;;2.30;1.57;;;7.20;1.00;;;;;;5040288;28;20650;-78
2020/12/30 11:26:11;;;;;;;1.77;1.67;;;7.40;1.00;;;;;;5044278;28;20430;-74
2020/12/30 11:28:37;;;;;;;1.40;1.30;;;7.40;1.00;;;;;;5054773;28;20473;-74
2020/12/30 11:31:13;;;;;;;3.20;1.93;;;7.70;1.00;;;;;;5051043;28;20418;-74
2020/12/30 11:33:42;;;;;;;1.67;1.50;;;7.80;1.00;;;;;;5044124;28;20198;-74
2020/12/30 11:36:18;;;;;;;1.80;1.43;;;8.10;1.00;;;;;;5045310;28;20450;-74
2020/12/30 11:38:44;;;;;;;3.90;3.00;;;8.10;1.00;;;;;;5051013;28;20962;-75
2020/12/30 11:41:11;;;;;;;10.03;5.60;;;8.50;1.00;;;;;;5043592;28;20443;-78
2020/12/30 11:43:37;;;;;;;2.80;2.30;;;;;;;;;;5049865;28;20821;-78
2020/12/30 11:46:06;;;;;;;3.60;2.90;;;8.80;1.00;;;;;;5034251;28;20439;-77
2020/12/30 11:48:48;;;;;;;6.73;2.33;;;9.00;1.00;;;;;;5034435;28;20450;-78
2020/12/30 11:51:48;;;;;;;2.17;2.00;;;8.90;1.00;;;;;;5034695;28;20438;-77
2020/12/30 11:54:19;;;;;;;1.80;1.70;;;8.80;1.00;;;;;;5034591;28;20387;-77
2020/12/30 11:56:45;;;;;;;1.90;1.40;;;8.90;1.00;;;;;;5036229;28;20960;-74
2020/12/30 11:59:11;;;;;;;2.13;1.93;;;;;;;;;;5044313;28;20426;-75
2020/12/30 12:01:48;;;;;;;6.00;2.43;;;9.00;1.00;;;;;;5048373;28;20184;-79
2020/12/30 12:04:14;;;;;;;2.53;1.73;;;8.80;1.00;;;;;;5043348;28;20480;-77
2020/12/30 12:06:42;;;;;;;3.50;1.70;;;8.70;1.00;;;;;;5036053;28;20415;-77
2020/12/30 12:09:08;;;;;;;1.87;1.20;;;;;;;;;;5042398;28;20235;-77
2020/12/30 12:11:48;;;;;;;1.30;1.20;;;8.50;1.00;;;;;;5034372;28;20407;-78
2020/12/30 12:14:33;;;;;;;3.47;1.30;;;8.60;1.00;;;;;;5038509;28;20436;-77
2020/12/30 12:16:59;;;;;;;2.33;1.43;;;8.50;1.00;;;;;;5040800;28;20437;-75
2020/12/30 12:19:31;;;;;;;1.63;1.53;;;8.50;1.00;;;;;;5053319;28;20497;-74
2020/12/30 12:22:09;;;;;;;2.87;1.70;;;8.40;1.00;;;;;;5045731;28;20453;-74
2020/12/30 12:24:39;;;;;;;2.57;1.60;;;8.20;1.00;;;;;;5049180;28;20898;-75
2020/12/30 12:27:07;;;;;;;4.67;1.50;;;8.30;1.00;;;;;;5033245;28;20423;-80
2020/12/30 12:29:36;;;;;;;2.87;2.10;;;8.20;1.00;;;;;;5034435;28;20455;-81
2020/12/30 12:32:36;;;;;;;1.37;1.27;;;8.10;1.00;;;;;;5032366;28;20819;-75
2020/12/30 12:35:02;;;;;;;2.53;2.03;;;8.00;1.00;;;;;;5033768;28;20401;-79
2020/12/30 12:37:29;;;;;;;2.10;1.90;;;7.90;1.00;;;;;;5045619;28;20437;-78
2020/12/30 12:40:04;;;;;;;2.87;1.90;;;7.90;1.00;;;;;;5041682;28;20946;-78
2020/12/30 12:42:30;;;;;;;2.50;2.03;;;7.80;1.00;;;;;;5033595;28;20516;-75
2020/12/30 12:45:01;;;;;;;2.23;1.93;;;7.80;1.00;;;;;;5033876;28;20453;-74
2020/12/30 12:47:27;;;;;;;1.80;1.70;;;7.80;1.00;;;;;;5033372;28;20415;-75
2020/12/30 12:50:01;;;;;;;2.50;2.17;;;7.80;1.00;;;;;;5033736;28;20516;-80
2020/12/30 12:52:31;;;;;;;2.23;1.80;;;;;;;;;;5032852;28;20451;-81
2020/12/30 12:55:24;;;;;;;2.77;2.13;;;7.60;1.00;;;;;;5053086;28;20794;-81
2020/12/30 12:57:50;;;;;;;2.30;1.90;;;7.50;1.00;;;;;;5052022;28;20410;-74
2020/12/30 13:00:16;;;;;;;2.43;2.03;;;7.40;1.00;;;;;;5034030;28;20506;-72
2020/12/30 13:02:43;;;;;;;2.07;1.87;;;7.30;1.00;;;;;;5033479;28;20515;-74
2020/12/30 13:05:08;;;;;;;1.70;1.60;;;7.30;1.00;;;;;;5036549;28;20215;-74
2020/12/30 13:07:34;;;;;;;2.43;1.67;;;7.30;1.00;;;;;;5049093;28;20804;-74
2020/12/30 13:10:00;;;;;;;4.97;2.17;;;7.30;1.00;;;;;;5043890;28;20572;-72
2020/12/30 13:12:25;;;;;;;2.77;2.00;;;7.30;1.00;;;;;;5036874;28;20259;-72
2020/12/30 13:14:51;;;;;;;6.30;1.70;;;;;;;;;;5038836;28;20191;-74
2020/12/30 13:17:17;;;;;;;3.63;1.67;;;7.40;1.00;;;;;;5041484;28;20654;-73
2020/12/30 13:19:43;;;;;;;2.53;1.60;;;7.30;1.00;;;;;;5053391;28;20402;-74
2020/12/30 13:22:08;;;;;;;1.63;1.30;;;7.30;1.00;;;;;;5037536;28;20231;-74
2020/12/30 13:24:34;;;;;;;1.77;1.50;;;;;;;;;;5033314;28;20189;-73
2020/12/30 13:27:00;;;;;;;2.30;1.47;;;7.20;1.00;;;;;;5033735;28;20558;-79
2020/12/30 13:29:30;;;;;;;2.23;1.60;;;7.20;1.00;;;;;;5041677;28;20446;-80
2020/12/30 13:32:42;;;;;;;1.80;1.23;;;7.20;1.00;;;;;;5033250;28;20211;-80
2020/12/30 13:35:18;;;;;;;1.00;0.90;;;7.10;1.00;;;;;;5046115;28;20429;-77
2020/12/30 13:38:00;;;;;;;1.57;1.47;;;7.20;1.00;;;;;;5051153;28;20933;-78
2020/12/30 13:40:43;;;;;;;1.30;1.10;;;7.20;1.00;;;;;;5037485;28;20938;-78